Time;durP1;ratioP1;P1;durP2;ratioP2;P2;SDS_P1;SDS_P2;PMS_P1;PMS_P2;Temp;Humidity;BMP_temperature;BMP_pressure;BME280_temperature;BME280_humidity;BME280_pressure;Samples;Min_cycle;Max_cycle;Signal;HPM_P1;HPM_P2
2022/01/04 00:01:15;;;;;;;37.88;31.95;;;22.00;51.60;;;;;;4924585;28;20042;-81
2022/01/04 00:03:41;;;;;;;37.92;30.80;;;22.00;51.60;;;;;;4955184;28;20027;-81
2022/01/04 00:06:08;;;;;;;39.72;30.63;;;22.00;51.50;;;;;;4953591;28;20039;-80
2022/01/04 00:08:34;;;;;;;37.13;30.08;;;22.00;51.70;;;;;;4971200;28;20031;-80
2022/01/04 00:11:09;;;;;;;39.15;31.10;;;22.00;51.60;;;;;;4955192;28;20034;-84
2022/01/04 00:13:35;;;;;;;39.63;31.65;;;22.00;51.70;;;;;;4949569;28;20033;-87
2022/01/04 00:16:03;;;;;;;38.90;30.30;;;22.00;51.70;;;;;;4953790;28;20027;-87
2022/01/04 00:18:29;;;;;;;35.75;30.35;;;22.00;51.60;;;;;;4952830;28;20027;-86
2022/01/04 00:20:55;;;;;;;36.13;30.00;;;22.00;51.70;;;;;;4954375;28;20041;-88
2022/01/04 00:23:21;;;;;;;35.55;29.55;;;22.00;51.80;;;;;;4955490;28;20479;-86
2022/01/04 00:25:47;;;;;;;36.33;29.60;;;22.00;51.70;;;;;;4954501;28;20031;-86
2022/01/04 00:28:12;;;;;;;35.67;28.88;;;22.00;51.80;;;;;;4941650;28;20027;-90
2022/01/04 00:30:39;;;;;;;34.22;29.35;;;22.00;51.80;;;;;;4975499;28;20498;-87
2022/01/04 00:33:08;;;;;;;34.08;28.67;;;22.00;51.90;;;;;;4942445;28;20038;-83
2022/01/04 00:35:34;;;;;;;39.92;26.05;;;22.00;52.30;;;;;;4957281;28;20062;-75
2022/01/04 00:38:00;;;;;;;32.45;20.60;;;21.90;52.60;;;;;;4974671;28;20031;-76
2022/01/04 00:40:26;;;;;;;29.85;18.30;;;21.60;47.80;;;;;;4974299;28;20021;-83
2022/01/04 00:42:55;;;;;;;30.60;18.60;;;21.40;45.50;;;;;;4957487;28;20111;-81
2022/01/04 00:45:22;;;;;;;31.30;17.52;;;21.40;46.20;;;;;;4974294;28;20030;-82
2022/01/04 00:50:20;;;;;;;29.92;18.10;;;21.50;47.60;;;;;;4972368;28;20031;-81
2022/01/04 00:52:46;;;;;;;26.30;17.77;;;21.50;47.10;;;;;;4949059;28;20583;-78
2022/01/04 00:55:12;;;;;;;28.90;18.10;;;21.60;47.40;;;;;;4980809;28;20121;-80
2022/01/04 00:57:38;;;;;;;30.33;18.25;;;21.60;47.90;;;;;;4965020;28;20034;-77
2022/01/04 01:00:05;;;;;;;28.42;18.38;;;21.60;48.20;;;;;;4947459;28;20395;-78
2022/01/04 01:02:31;;;;;;;26.92;18.08;;;21.70;48.40;;;;;;4945318;28;20139;-77
2022/01/04 01:04:57;;;;;;;22.25;17.33;;;21.70;48.60;;;;;;4973685;28;20062;-77
2022/01/04 01:07:22;;;;;;;25.95;18.10;;;21.80;48.80;;;;;;4973947;28;20104;-77
2022/01/04 01:12:26;;;;;;;25.33;17.65;;;21.80;49.00;;;;;;4972801;28;20065;-78
2022/01/04 01:14:53;;;;;;;25.05;17.05;;;21.80;49.10;;;;;;4973591;28;20112;-77
2022/01/04 01:17:18;;;;;;;24.60;16.52;;;21.90;49.20;;;;;;4940432;28;20066;-78
2022/01/04 01:19:44;;;;;;;33.60;16.92;;;21.80;49.10;;;;;;4963532;28;20069;-78
2022/01/04 01:22:10;;;;;;;23.33;16.60;;;21.80;49.30;;;;;;4964984;28;20555;-77
2022/01/04 01:24:35;;;;;;;24.88;16.15;;;21.90;49.40;;;;;;4973319;28;20034;-77
2022/01/04 01:27:01;;;;;;;21.40;15.10;;;21.90;49.50;;;;;;4964069;28;20023;-78
2022/01/04 01:29:28;;;;;;;23.92;16.30;;;21.90;49.50;;;;;;4964393;28;20019;-78
2022/01/04 01:31:54;;;;;;;22.67;15.63;;;21.80;49.70;;;;;;4963019;28;20121;-78
2022/01/04 01:34:19;;;;;;;22.85;15.38;;;21.80;49.70;;;;;;4964192;28;20640;-78
2022/01/04 01:36:45;;;;;;;20.60;14.57;;;21.80;49.80;;;;;;4963712;28;20081;-78
2022/01/04 01:39:12;;;;;;;20.00;15.25;;;21.90;49.80;;;;;;4962317;28;20034;-78
2022/01/04 01:41:38;;;;;;;24.00;14.73;;;21.90;49.90;;;;;;4973293;28;20530;-78
2022/01/04 01:44:04;;;;;;;24.52;15.82;;;21.80;50.00;;;;;;4973391;28;20115;-79
2022/01/04 01:46:30;;;;;;;23.10;15.55;;;21.90;50.10;;;;;;4962456;28;20026;-78
2022/01/04 01:48:55;;;;;;;20.52;15.07;;;21.80;50.00;;;;;;4947707;28;20080;-78
2022/01/04 01:51:25;;;;;;;20.90;15.23;;;21.80;50.20;;;;;;4963224;28;20471;-79
2022/01/04 01:53:50;;;;;;;23.73;15.52;;;21.80;50.40;;;;;;4973108;28;20046;-79
2022/01/04 01:56:16;;;;;;;21.48;15.10;;;21.80;50.30;;;;;;4955531;28;20022;-78
2022/01/04 01:58:42;;;;;;;23.20;15.05;;;21.80;50.40;;;;;;4972789;28;20307;-79
2022/01/04 02:01:09;;;;;;;21.10;15.02;;;21.80;50.50;;;;;;4962902;28;20014;-79
2022/01/04 02:03:35;;;;;;;19.42;14.38;;;21.90;50.60;;;;;;4964212;28;20518;-78
2022/01/04 02:06:01;;;;;;;21.40;14.40;;;21.80;50.60;;;;;;4962574;28;20062;-78
2022/01/04 02:08:28;;;;;;;18.38;13.55;;;21.90;50.60;;;;;;4962626;28;20049;-77
2022/01/04 02:10:57;;;;;;;19.40;13.70;;;21.80;50.60;;;;;;4946989;28;20053;-78
2022/01/04 02:13:24;;;;;;;19.05;13.13;;;21.80;50.70;;;;;;4962863;28;20057;-78
2022/01/04 02:15:51;;;;;;;19.73;13.70;;;21.80;50.70;;;;;;4979885;28;20035;-78
2022/01/04 02:18:17;;;;;;;17.52;13.05;;;21.80;50.80;;;;;;4970154;28;20077;-78
2022/01/04 02:20:43;;;;;;;19.45;14.48;;;21.90;50.80;;;;;;4972776;28;20047;-77
2022/01/04 02:23:09;;;;;;;19.88;13.65;;;21.90;50.80;;;;;;4977527;28;20050;-78
2022/01/04 02:25:35;;;;;;;21.15;13.82;;;21.90;50.90;;;;;;4963688;28;20022;-78
2022/01/04 02:28:01;;;;;;;20.23;13.48;;;21.90;50.90;;;;;;4945378;28;20023;-78
2022/01/04 02:30:27;;;;;;;18.27;13.18;;;21.90;50.90;;;;;;4962536;28;20030;-78
2022/01/04 02:32:53;;;;;;;21.73;13.02;;;21.90;50.90;;;;;;4964028;28;20549;-77
2022/01/04 02:35:23;;;;;;;19.60;13.20;;;21.80;50.80;;;;;;4962296;28;20019;-78
2022/01/04 02:37:49;;;;;;;18.02;12.15;;;21.90;50.90;;;;;;4962520;28;20038;-78
2022/01/04 02:40:15;;;;;;;16.50;12.30;;;21.80;50.80;;;;;;4946905;28;20490;-78
2022/01/04 02:42:41;;;;;;;18.10;12.65;;;21.90;50.90;;;;;;4945646;28;20027;-77
2022/01/04 02:45:08;;;;;;;17.98;12.18;;;21.80;50.80;;;;;;4972408;28;20586;-77
2022/01/04 02:47:34;;;;;;;18.13;12.60;;;21.90;51.00;;;;;;4972617;28;20117;-77
2022/01/04 02:49:59;;;;;;;17.00;12.00;;;21.80;50.90;;;;;;4972463;28;20066;-77
2022/01/04 02:52:27;;;;;;;17.77;12.13;;;21.90;51.00;;;;;;4945454;28;20027;-78
2022/01/04 02:54:53;;;;;;;17.38;11.70;;;21.80;50.90;;;;;;4938362;28;20030;-77
2022/01/04 02:57:18;;;;;;;19.33;11.55;;;21.80;51.00;;;;;;4978712;28;20026;-77
2022/01/04 02:59:44;;;;;;;17.88;12.63;;;21.80;51.00;;;;;;4962877;28;20019;-77
2022/01/04 03:02:10;;;;;;;15.98;11.38;;;21.80;51.00;;;;;;4954447;28;20542;-78
2022/01/04 03:04:36;;;;;;;17.83;11.63;;;21.80;51.10;;;;;;4944035;28;20105;-77
2022/01/04 03:07:03;;;;;;;16.85;12.32;;;21.80;51.10;;;;;;4970398;28;20015;-77
2022/01/04 03:09:29;;;;;;;16.83;11.55;;;21.80;51.00;;;;;;4955239;28;20119;-77
2022/01/04 03:11:56;;;;;;;18.38;11.90;;;21.80;51.10;;;;;;4961672;28;20483;-77
2022/01/04 03:14:22;;;;;;;15.32;10.75;;;21.80;51.10;;;;;;4963074;28;20069;-77
2022/01/04 03:16:48;;;;;;;16.88;12.00;;;21.80;51.10;;;;;;4962960;28;20584;-78
2022/01/04 03:19:14;;;;;;;15.50;10.77;;;21.80;51.10;;;;;;4971972;28;20031;-78
2022/01/04 03:21:42;;;;;;;16.75;10.77;;;21.80;51.10;;;;;;4946095;28;20039;-78
2022/01/04 03:24:11;;;;;;;16.45;11.55;;;21.80;51.80;;;;;;4946234;28;20023;-78
2022/01/04 03:26:39;;;;;;;18.75;11.07;;;21.80;51.30;;;;;;4955738;28;20027;-78
2022/01/04 03:29:07;;;;;;;18.83;11.55;;;21.80;51.30;;;;;;4975540;28;20034;-77
2022/01/04 03:31:33;;;;;;;15.77;11.07;;;21.80;51.30;;;;;;4975508;28;20031;-77
2022/01/04 03:33:59;;;;;;;17.48;10.82;;;21.80;51.30;;;;;;4975579;28;20121;-77
2022/01/04 03:36:25;;;;;;;15.27;10.00;;;21.80;51.40;;;;;;4958201;28;20039;-77
2022/01/04 03:38:55;;;;;;;19.35;10.73;;;21.80;51.40;;;;;;4965008;28;20027;-78
2022/01/04 03:41:22;;;;;;;16.58;10.85;;;21.80;51.70;;;;;;4975457;28;20449;-77
2022/01/04 03:43:49;;;;;;;16.67;10.18;;;21.80;51.60;;;;;;4965313;28;20032;-77
2022/01/04 03:46:16;;;;;;;15.48;10.38;;;21.80;51.70;;;;;;4966219;28;20081;-77
2022/01/04 03:48:41;;;;;;;15.60;9.95;;;21.80;51.70;;;;;;4965161;28;20062;-78
2022/01/04 03:51:08;;;;;;;14.30;9.85;;;21.80;51.90;;;;;;4965488;28;20063;-77
2022/01/04 03:53:34;;;;;;;17.23;9.88;;;21.80;51.80;;;;;;4966619;28;20019;-78
2022/01/04 03:56:01;;;;;;;15.57;9.90;;;21.80;51.50;;;;;;4964670;28;20027;-77
2022/01/04 03:58:26;;;;;;;15.60;10.60;;;21.80;51.90;;;;;;4957846;28;20102;-77
2022/01/04 04:00:52;;;;;;;16.30;11.00;;;21.80;51.50;;;;;;4974960;28;20796;-77
2022/01/04 04:03:18;;;;;;;14.82;10.07;;;21.80;51.60;;;;;;4972501;28;20026;-77
2022/01/04 04:05:44;;;;;;;15.13;10.27;;;21.80;51.80;;;;;;4955909;28;20024;-76
2022/01/04 04:08:10;;;;;;;13.60;9.43;;;21.80;51.60;;;;;;4974888;28;20037;-78
2022/01/04 04:10:36;;;;;;;14.10;9.32;;;21.80;51.60;;;;;;4957707;28;20497;-77
2022/01/04 04:13:02;;;;;;;15.63;9.70;;;21.80;51.70;;;;;;4957793;28;20125;-77
2022/01/04 04:15:28;;;;;;;14.77;9.65;;;21.80;51.60;;;;;;4974519;28;20027;-77
2022/01/04 04:17:53;;;;;;;14.40;9.65;;;21.70;51.70;;;;;;4964103;28;20032;-77
2022/01/04 04:20:20;;;;;;;13.90;9.13;;;21.80;51.80;;;;;;4948747;28;20027;-77
2022/01/04 04:22:47;;;;;;;14.32;9.20;;;21.80;51.90;;;;;;4965167;28;20024;-77
2022/01/04 04:25:13;;;;;;;14.85;9.27;;;21.80;51.70;;;;;;4948883;29;20158;-77
2022/01/04 04:27:39;;;;;;;14.00;9.10;;;21.80;51.90;;;;;;4974550;28;20027;-77
2022/01/04 04:30:05;;;;;;;13.77;9.02;;;21.80;51.70;;;;;;4947838;28;20031;-77
2022/01/04 04:32:31;;;;;;;13.77;8.82;;;21.80;51.70;;;;;;4948522;28;20035;-76
2022/01/04 04:34:57;;;;;;;14.88;9.68;;;21.80;51.70;;;;;;4963398;28;20027;-77
2022/01/04 04:37:23;;;;;;;14.18;9.57;;;21.80;51.70;;;;;;4965065;28;20471;-78
2022/01/04 04:39:49;;;;;;;13.35;8.73;;;21.80;51.90;;;;;;4939001;28;20034;-78
2022/01/04 04:42:15;;;;;;;13.38;8.88;;;21.80;51.80;;;;;;4974301;28;20027;-78
2022/01/04 04:44:40;;;;;;;13.63;9.25;;;21.70;51.70;;;;;;4940951;28;20034;-78
2022/01/04 04:47:06;;;;;;;13.05;8.95;;;21.70;52.10;;;;;;4974171;28;20387;-78
2022/01/04 04:49:32;;;;;;;13.40;8.80;;;21.80;52.10;;;;;;4974146;28;20023;-78
2022/01/04 04:51:59;;;;;;;17.15;9.50;;;21.70;51.80;;;;;;4957198;28;20026;-78
2022/01/04 04:54:26;;;;;;;13.07;9.10;;;21.80;52.00;;;;;;4964644;28;20019;-78
2022/01/04 04:56:52;;;;;;;12.38;8.40;;;21.80;52.20;;;;;;4964773;28;20031;-78
2022/01/04 04:59:17;;;;;;;13.43;9.27;;;21.80;52.10;;;;;;4963529;28;20391;-78
2022/01/04 05:01:43;;;;;;;13.07;9.10;;;21.80;52.10;;;;;;4954789;28;20368;-78
2022/01/04 05:04:09;;;;;;;12.93;8.13;;;21.80;52.20;;;;;;4974014;28;20026;-77
2022/01/04 05:06:34;;;;;;;13.93;8.52;;;21.80;52.10;;;;;;4973458;28;20509;-78
2022/01/04 05:09:00;;;;;;;13.95;8.63;;;21.80;52.10;;;;;;4979789;28;20046;-78
2022/01/04 05:11:26;;;;;;;13.40;8.55;;;21.80;52.10;;;;;;4964074;28;20488;-78
2022/01/04 05:13:52;;;;;;;12.40;7.93;;;21.80;52.20;;;;;;4980403;28;20566;-76
2022/01/04 05:16:18;;;;;;;12.82;8.00;;;21.80;52.30;;;;;;4953371;28;20495;-77
2022/01/04 05:18:44;;;;;;;14.02;8.75;;;21.80;52.40;;;;;;4948146;28;20110;-78
2022/01/04 05:21:10;;;;;;;12.80;8.35;;;21.80;52.20;;;;;;4956598;28;20115;-78
2022/01/04 05:23:35;;;;;;;14.90;8.52;;;21.80;52.30;;;;;;4973447;28;20480;-78
2022/01/04 05:26:02;;;;;;;14.23;8.98;;;21.70;52.20;;;;;;4955976;28;20074;-78
2022/01/04 05:28:28;;;;;;;13.85;8.55;;;21.80;52.30;;;;;;4973325;28;20023;-78
2022/01/04 05:30:53;;;;;;;13.15;8.40;;;21.80;52.50;;;;;;4962770;28;20697;-78
2022/01/04 05:33:19;;;;;;;11.82;7.88;;;21.80;52.30;;;;;;4964764;28;20026;-78
2022/01/04 05:35:47;;;;;;;12.45;7.95;;;21.80;52.40;;;;;;4936381;28;20491;-78
2022/01/04 05:38:12;;;;;;;12.07;8.02;;;21.80;52.20;;;;;;4973296;28;20042;-77
2022/01/04 05:40:38;;;;;;;12.48;8.07;;;21.80;52.30;;;;;;4956050;28;20026;-78
2022/01/04 05:43:04;;;;;;;11.52;7.70;;;21.80;52.50;;;;;;4946798;28;20030;-78
2022/01/04 05:45:30;;;;;;;11.20;7.35;;;21.80;52.20;;;;;;4962896;28;20023;-79
2022/01/04 05:47:56;;;;;;;12.32;8.20;;;21.80;52.40;;;;;;4972802;28;20380;-78
2022/01/04 05:50:22;;;;;;;11.93;7.45;;;21.80;52.30;;;;;;4947001;28;20018;-77
2022/01/04 05:52:47;;;;;;;11.43;7.43;;;21.80;52.50;;;;;;4937150;28;20042;-78
2022/01/04 05:55:13;;;;;;;13.07;8.10;;;21.80;52.30;;;;;;4972723;28;20407;-78
2022/01/04 05:57:39;;;;;;;11.80;7.72;;;21.70;52.40;;;;;;4962228;28;20033;-78
2022/01/04 06:00:06;;;;;;;12.75;7.70;;;21.80;52.30;;;;;;4963577;28;20050;-78
2022/01/04 06:02:34;;;;;;;10.80;7.10;;;21.80;52.40;;;;;;4964567;28;20102;-78
2022/01/04 06:05:00;;;;;;;13.40;7.80;;;21.80;53.00;;;;;;4955613;28;20066;-79
2022/01/04 06:07:26;;;;;;;11.68;7.65;;;21.80;52.60;;;;;;4973013;28;20045;-78
2022/01/04 06:09:53;;;;;;;11.77;7.78;;;21.80;52.80;;;;;;4972920;28;20484;-79
2022/01/04 06:14:58;;;;;;;11.07;6.88;;;21.80;52.50;;;;;;4972863;28;20031;-78
2022/01/04 06:17:31;;;;;;;17.58;7.30;;;21.80;52.50;;;;;;4968323;28;20030;-78
2022/01/04 06:19:58;;;;;;;10.25;7.05;;;21.80;52.50;;;;;;4962173;28;20031;-78
2022/01/04 06:22:28;;;;;;;12.52;7.32;;;21.80;52.60;;;;;;4972947;28;20023;-79
2022/01/04 06:24:55;;;;;;;11.57;7.28;;;21.80;52.50;;;;;;4972687;28;20026;-78
2022/01/04 06:27:21;;;;;;;13.98;7.45;;;21.80;52.60;;;;;;4952978;28;20487;-77
2022/01/04 06:29:47;;;;;;;11.98;7.60;;;21.80;52.80;;;;;;4963210;28;20027;-78
2022/01/04 06:32:14;;;;;;;11.05;6.93;;;21.80;52.70;;;;;;4946741;28;20078;-79
2022/01/04 06:34:41;;;;;;;10.07;6.88;;;21.80;52.60;;;;;;4961920;28;20432;-79
2022/01/04 06:37:08;;;;;;;12.35;6.70;;;21.80;52.70;;;;;;4955397;28;20042;-79
2022/01/04 06:39:34;;;;;;;12.45;7.50;;;21.80;52.80;;;;;;4972710;28;20019;-79
2022/01/04 06:42:00;;;;;;;10.90;6.90;;;21.80;52.70;;;;;;4972630;28;20026;-79
2022/01/04 06:44:26;;;;;;;11.88;7.03;;;21.80;52.70;;;;;;4930598;28;20027;-78
2022/01/04 06:46:52;;;;;;;10.23;6.78;;;21.80;52.60;;;;;;4946465;28;20055;-77
2022/01/04 06:49:19;;;;;;;10.55;6.85;;;21.80;52.70;;;;;;4955511;28;20074;-78
2022/01/04 06:51:46;;;;;;;11.80;7.05;;;21.80;52.90;;;;;;4972591;28;20027;-78
2022/01/04 06:54:14;;;;;;;11.70;6.90;;;21.80;53.00;;;;;;4972725;28;20073;-78
2022/01/04 06:56:40;;;;;;;9.95;6.47;;;21.70;53.00;;;;;;4944530;28;20039;-78
2022/01/04 06:59:07;;;;;;;9.50;6.50;;;21.80;52.90;;;;;;4963267;28;20053;-78
2022/01/04 07:01:34;;;;;;;10.15;6.65;;;21.80;53.10;;;;;;4957047;28;20031;-78
2022/01/04 07:04:00;;;;;;;10.23;6.68;;;21.80;52.90;;;;;;4976357;28;20028;-78
2022/01/04 07:06:26;;;;;;;10.30;6.55;;;21.80;53.20;;;;;;4975977;28;20030;-78
2022/01/04 07:08:52;;;;;;;10.18;6.20;;;21.70;53.00;;;;;;4976187;28;20402;-78
2022/01/04 07:11:18;;;;;;;11.07;7.13;;;21.70;52.90;;;;;;4958923;28;20027;-78
2022/01/04 07:13:44;;;;;;;10.48;6.35;;;21.80;53.10;;;;;;4976285;28;20023;-78
2022/01/04 07:16:10;;;;;;;10.75;7.15;;;21.80;53.00;;;;;;4966053;28;20041;-79
2022/01/04 07:18:36;;;;;;;11.20;6.85;;;21.80;53.00;;;;;;4967177;28;20045;-77
2022/01/04 07:21:02;;;;;;;10.40;6.25;;;21.80;53.20;;;;;;4970906;28;20102;-78
2022/01/04 07:23:27;;;;;;;10.43;6.30;;;21.80;53.10;;;;;;4957171;28;20538;-77
2022/01/04 07:25:54;;;;;;;9.88;6.15;;;21.80;53.00;;;;;;4958412;28;20018;-78
2022/01/04 07:28:21;;;;;;;11.05;6.28;;;21.80;53.00;;;;;;4947909;28;20038;-77
2022/01/04 07:30:47;;;;;;;10.27;6.32;;;21.80;52.80;;;;;;4975823;28;20031;-78
2022/01/04 07:33:13;;;;;;;10.43;6.63;;;21.80;52.70;;;;;;4958378;28;20109;-77
2022/01/04 07:35:39;;;;;;;9.88;6.22;;;21.80;52.70;;;;;;4975386;28;20479;-77
2022/01/04 07:38:05;;;;;;;11.02;5.97;;;21.80;52.70;;;;;;4975545;28;20041;-78
2022/01/04 07:40:31;;;;;;;9.60;6.25;;;21.80;52.60;;;;;;4975751;28;20019;-77
2022/01/04 07:42:59;;;;;;;9.18;5.88;;;21.80;52.70;;;;;;4982517;28;20041;-78
2022/01/04 07:45:29;;;;;;;9.57;6.20;;;21.80;52.80;;;;;;4966173;28;20031;-77
2022/01/04 07:47:56;;;;;;;10.77;6.07;;;21.80;52.70;;;;;;4966730;28;20034;-78
2022/01/04 07:50:22;;;;;;;10.10;6.57;;;21.80;52.80;;;;;;4959067;28;20038;-75
2022/01/04 07:52:48;;;;;;;9.95;4.55;;;21.70;52.80;;;;;;4939798;29;20057;-74
2022/01/04 07:55:13;;;;;;;7.68;3.65;;;21.60;48.50;;;;;;4923259;29;20035;-75
2022/01/04 07:57:40;;;;;;;14.75;3.05;;;21.40;49.00;;;;;;4956339;28;20028;-75
2022/01/04 08:00:07;;;;;;;9.88;3.00;;;21.20;47.20;;;;;;4956382;29;20467;-75
2022/01/04 08:02:43;;;;;;;13.27;3.10;;;21.20;45.90;;;;;;4956474;28;20038;-74
2022/01/04 08:05:10;;;;;;;11.48;2.83;;;21.00;48.10;;;;;;4955896;29;20039;-75
2022/01/04 08:07:36;;;;;;;12.32;3.38;;;21.00;46.10;;;;;;4966098;28;20034;-75
2022/01/04 08:10:03;;;;;;;12.68;3.67;;;20.90;47.90;;;;;;4960661;28;20030;-75
2022/01/04 08:12:29;;;;;;;8.98;4.15;;;20.90;44.60;;;;;;4957092;28;20081;-75
2022/01/04 08:14:55;;;;;;;8.30;4.30;;;20.80;44.80;;;;;;4952771;28;20479;-74
2022/01/04 08:17:21;;;;;;;8.68;3.58;;;20.80;44.10;;;;;;4955813;28;20070;-73
2022/01/04 08:19:47;;;;;;;7.30;2.90;;;20.70;44.00;;;;;;4922671;29;20031;-72
2022/01/04 08:22:12;;;;;;;5.57;2.50;;;20.70;43.80;;;;;;4938630;29;20087;-73
2022/01/04 08:24:38;;;;;;;8.95;3.05;;;20.70;44.00;;;;;;4955731;28;20082;-73
2022/01/04 08:27:04;;;;;;;8.02;3.03;;;20.60;43.80;;;;;;4955855;28;20102;-73
2022/01/04 08:29:31;;;;;;;6.90;2.55;;;20.60;43.70;;;;;;4938469;29;20372;-73
2022/01/04 08:31:59;;;;;;;7.35;2.63;;;20.60;43.60;;;;;;4955813;29;20031;-74
2022/01/04 08:34:25;;;;;;;7.07;3.10;;;20.50;43.70;;;;;;4955773;28;20034;-73
2022/01/04 08:36:50;;;;;;;7.40;3.00;;;20.50;43.70;;;;;;4954002;29;20038;-75
2022/01/04 08:39:16;;;;;;;7.85;3.35;;;20.50;43.70;;;;;;5040757;23;20046;-77
2022/01/04 08:41:43;;;;;;;11.23;5.43;;;20.50;44.00;;;;;;5033407;28;20025;-77
2022/01/04 08:44:09;;;;;;;19.73;12.32;;;20.60;44.30;;;;;;5012108;28;20033;-82
2022/01/04 08:46:36;;;;;;;16.10;7.70;;;20.60;44.40;;;;;;5012222;28;20508;-83
2022/01/04 08:49:07;;;;;;;14.45;7.03;;;20.60;43.80;;;;;;5013737;28;20033;-83
2022/01/04 08:51:36;;;;;;;12.60;5.30;;;20.40;43.80;;;;;;5013459;28;20112;-82
2022/01/04 08:54:02;;;;;;;10.87;4.50;;;20.40;43.90;;;;;;4996223;28;20042;-78
2022/01/04 08:56:28;;;;;;;11.38;4.57;;;20.30;44.40;;;;;;5012135;28;20037;-78
2022/01/04 08:58:54;;;;;;;13.18;4.70;;;20.50;45.50;;;;;;5013339;28;20042;-78
2022/01/04 09:01:20;;;;;;;15.95;4.90;;;20.60;45.30;;;;;;5013091;28;20437;-78
2022/01/04 09:03:46;;;;;;;12.88;4.72;;;20.70;45.30;;;;;;5012468;28;20022;-78
2022/01/04 09:06:12;;;;;;;10.07;4.68;;;20.90;45.50;;;;;;5013033;28;20504;-78
2022/01/04 09:08:37;;;;;;;8.15;4.00;;;21.00;45.60;;;;;;5023120;28;20382;-79
2022/01/04 09:11:04;;;;;;;8.48;4.47;;;21.00;45.70;;;;;;5032164;28;20028;-78
2022/01/04 09:13:38;;;;;;;10.40;3.92;;;21.10;45.50;;;;;;5033254;28;20030;-78
2022/01/04 09:18:43;;;;;;;8.75;4.35;;;21.20;45.70;;;;;;5032849;28;20033;-78
2022/01/04 09:21:29;;;;;;;9.02;4.03;;;21.20;45.80;;;;;;5031712;28;20029;-78
2022/01/04 09:23:59;;;;;;;7.55;4.05;;;21.30;46.00;;;;;;5030625;28;20033;-78
2022/01/04 09:26:26;;;;;;;7.05;3.70;;;21.30;46.70;;;;;;5032689;28;20021;-79
2022/01/04 09:28:53;;;;;;;7.35;4.07;;;21.30;46.30;;;;;;5031778;28;20123;-78
2022/01/04 09:31:23;;;;;;;9.00;3.90;;;21.30;46.40;;;;;;5032786;28;20056;-78
2022/01/04 09:33:50;;;;;;;7.57;3.58;;;21.30;46.30;;;;;;5032962;28;20037;-77
2022/01/04 09:36:16;;;;;;;8.48;3.40;;;21.30;46.50;;;;;;5032420;28;20477;-78
2022/01/04 09:38:42;;;;;;;6.40;3.70;;;21.30;46.50;;;;;;5032452;28;20026;-77
2022/01/04 09:41:07;;;;;;;6.43;3.47;;;21.30;46.70;;;;;;5031694;28;20025;-78
2022/01/04 09:43:36;;;;;;;9.55;3.80;;;21.40;46.80;;;;;;5031596;28;20493;-78
2022/01/04 09:46:02;;;;;;;8.68;3.28;;;21.30;46.80;;;;;;5032279;28;20026;-78
2022/01/04 09:48:28;;;;;;;5.85;3.38;;;21.30;46.90;;;;;;5031478;28;20029;-78
2022/01/04 09:50:57;;;;;;;5.55;3.35;;;21.40;47.10;;;;;;5032642;28;20516;-78
2022/01/04 09:53:24;;;;;;;6.93;3.60;;;21.40;47.10;;;;;;5031385;28;20030;-77
2022/01/04 09:55:51;;;;;;;5.90;3.25;;;21.40;47.30;;;;;;5031182;28;20075;-78
2022/01/04 09:58:19;;;;;;;5.80;3.53;;;21.40;47.20;;;;;;5032094;28;20021;-78
2022/01/04 10:00:46;;;;;;;6.30;3.55;;;21.40;47.30;;;;;;5031297;28;20112;-78
2022/01/04 10:03:22;;;;;;;6.28;3.63;;;21.40;48.00;;;;;;5032348;28;20029;-78
2022/01/04 10:05:48;;;;;;;6.57;3.63;;;21.40;47.40;;;;;;5032030;28;20026;-78
2022/01/04 10:08:15;;;;;;;5.65;3.38;;;21.40;47.50;;;;;;5032169;28;20029;-78
2022/01/04 10:10:42;;;;;;;8.77;3.78;;;21.40;47.40;;;;;;5030880;28;20029;-78
2022/01/04 10:13:15;;;;;;;5.60;3.13;;;21.40;47.50;;;;;;5032435;28;20029;-78
2022/01/04 10:15:40;;;;;;;7.88;3.78;;;21.40;47.60;;;;;;5030815;28;20570;-78
2022/01/04 10:18:12;;;;;;;5.80;3.42;;;21.40;47.60;;;;;;5031978;28;20030;-77
2022/01/04 10:20:42;;;;;;;5.70;3.67;;;21.40;47.70;;;;;;5031154;28;20030;-78
2022/01/04 10:23:10;;;;;;;6.07;3.50;;;21.40;47.80;;;;;;5032374;28;20033;-78
2022/01/04 10:25:36;;;;;;;5.65;3.63;;;21.30;47.80;;;;;;5031762;28;20477;-78
2022/01/04 10:28:02;;;;;;;7.03;3.65;;;21.40;47.90;;;;;;5030725;28;20026;-78
2022/01/04 10:30:31;;;;;;;5.95;3.30;;;21.40;48.00;;;;;;5032160;28;20032;-78
2022/01/04 10:33:04;;;;;;;6.95;3.13;;;21.40;48.10;;;;;;5014414;28;20041;-78
2022/01/04 10:35:49;;;;;;;8.43;5.13;;;21.40;48.10;;;;;;5035309;28;20087;-79
2022/01/04 10:38:29;;;;;;;8.43;4.28;;;21.30;48.90;;;;;;5035812;28;20037;-78
2022/01/04 10:41:07;;;;;;;;;;;21.30;49.20;;;;;;5036372;28;20029;-78
2022/01/04 10:43:48;;;;;;;15.70;4.53;;;21.40;49.30;;;;;;5035633;28;19913;-78
2022/01/04 10:46:18;;;;;;;16.60;4.93;;;21.40;49.60;;;;;;5035275;28;20100;-78
2022/01/04 10:48:46;;;;;;;7.20;4.38;;;21.40;49.60;;;;;;5035816;28;20036;-78
2022/01/04 10:51:14;;;;;;;11.57;4.50;;;21.40;49.30;;;;;;5018204;28;20037;-78
2022/01/04 10:53:42;;;;;;;9.77;4.60;;;21.40;50.20;;;;;;5034432;28;20508;-75
2022/01/04 10:56:17;;;;;;;14.05;5.00;;;21.40;50.20;;;;;;5034425;28;20485;-76
2022/01/04 10:58:49;;;;;;;15.73;5.28;;;21.40;51.00;;;;;;5035224;28;20033;-71
2022/01/04 11:01:21;;;;;;;17.65;10.48;;;21.30;49.10;;;;;;5035238;28;20099;-71
2022/01/04 11:03:53;;;;;;;20.58;12.85;;;21.10;47.10;;;;;;5018084;28;20061;-75
2022/01/04 11:06:27;;;;;;;24.40;12.32;;;21.00;47.40;;;;;;5033940;28;20064;-75
2022/01/04 11:08:54;;;;;;;20.02;11.20;;;21.00;48.40;;;;;;5035523;28;20029;-75
2022/01/04 11:11:20;;;;;;;21.95;10.85;;;21.10;50.90;;;;;;5035432;28;20052;-74
2022/01/04 11:13:48;;;;;;;19.45;10.38;;;21.10;49.60;;;;;;5034080;28;20029;-75
2022/01/04 11:16:18;;;;;;;18.77;10.65;;;21.20;49.20;;;;;;5033903;28;20068;-75
2022/01/04 11:18:47;;;;;;;17.63;10.82;;;21.20;49.20;;;;;;5033983;28;20030;-75
2022/01/04 11:21:14;;;;;;;17.33;9.93;;;21.30;48.80;;;;;;5035369;28;20033;-74
2022/01/04 11:23:41;;;;;;;19.42;10.13;;;21.30;50.00;;;;;;5035008;28;20025;-75
2022/01/04 11:26:09;;;;;;;19.83;9.23;;;21.40;54.40;;;;;;5032562;28;20029;-75
2022/01/04 11:28:42;;;;;;;14.98;8.95;;;21.40;52.20;;;;;;5034884;28;20029;-75
2022/01/04 11:31:25;;;;;;;22.05;9.70;;;21.40;51.50;;;;;;5035229;28;20436;-74
2022/01/04 11:34:10;;;;;;;21.08;9.15;;;21.40;52.70;;;;;;5033799;28;20033;-74
2022/01/04 11:36:49;;;;;;;17.55;9.63;;;21.40;50.90;;;;;;5034667;28;20026;-75
2022/01/04 11:39:34;;;;;;;17.63;9.03;;;21.40;52.20;;;;;;5016960;28;20041;-75
2022/01/04 11:42:06;;;;;;;22.95;9.50;;;21.50;53.70;;;;;;5035543;28;20025;-74
2022/01/04 11:44:32;;;;;;;16.10;9.25;;;21.50;54.60;;;;;;5034693;28;20018;-75
2022/01/04 11:47:09;;;;;;;19.55;9.35;;;21.50;55.00;;;;;;5033561;28;20386;-75
2022/01/04 11:49:38;;;;;;;18.52;8.40;;;21.50;52.90;;;;;;5033426;28;20051;-78
2022/01/04 11:52:10;;;;;;;15.82;9.32;;;21.50;53.00;;;;;;5034701;28;20025;-75
2022/01/04 11:57:25;;;;;;;14.20;8.50;;;21.50;52.80;;;;;;5327735;23;20038;-74
2022/01/04 11:59:59;;;;;;;19.00;8.20;;;21.50;52.80;;;;;;5005334;28;20021;-74
2022/01/04 12:02:30;;;;;;;16.58;9.13;;;21.50;52.70;;;;;;4987739;28;20034;-74
2022/01/04 12:05:04;;;;;;;15.02;8.57;;;21.50;52.90;;;;;;5007663;28;20045;-73
2022/01/04 12:07:44;;;;;;;18.30;9.32;;;21.50;52.70;;;;;;5028193;28;20146;-74
2022/01/04 12:10:22;;;;;;;14.70;8.73;;;21.50;52.60;;;;;;5033808;28;20034;-75
2022/01/04 12:13:09;;;;;;;14.18;9.15;;;21.50;52.70;;;;;;5034188;28;20121;-74
2022/01/04 12:15:35;;;;;;;18.88;9.80;;;21.50;52.60;;;;;;5016566;28;20037;-74
2022/01/04 12:18:21;;;;;;;17.73;8.80;;;21.50;53.10;;;;;;5033531;28;20520;-74
2022/01/04 12:20:48;;;;;;;26.77;8.75;;;21.60;53.00;;;;;;5003195;28;20388;-74
2022/01/04 12:23:26;;;;;;;20.50;8.50;;;21.60;53.70;;;;;;5033970;28;20034;-75
2022/01/04 12:26:11;;;;;;;15.93;8.88;;;21.50;53.00;;;;;;5033603;28;20079;-75
2022/01/04 12:28:54;;;;;;;19.73;8.82;;;21.50;52.90;;;;;;5033787;28;20539;-75
2022/01/04 12:31:20;;;;;;;15.55;8.93;;;21.60;52.90;;;;;;5033928;28;20033;-75
2022/01/04 12:33:48;;;;;;;16.13;9.10;;;21.50;52.80;;;;;;5033504;28;20037;-76
2022/01/04 12:36:38;;;;;;;16.08;9.18;;;21.50;52.90;;;;;;5033415;28;20038;-75
2022/01/04 12:39:09;;;;;;;16.25;8.43;;;21.50;52.80;;;;;;5033152;28;20401;-76
2022/01/04 12:41:37;;;;;;;16.00;8.05;;;21.60;53.00;;;;;;5033615;28;20025;-76
2022/01/04 12:44:04;;;;;;;14.23;8.27;;;21.60;52.80;;;;;;5033381;28;20026;-76
2022/01/04 12:46:34;;;;;;;14.52;8.20;;;21.60;52.60;;;;;;5014519;28;20026;-76
2022/01/04 12:49:06;;;;;;;13.30;7.97;;;21.60;52.60;;;;;;5013636;28;20030;-75
2022/01/04 12:51:35;;;;;;;14.90;8.88;;;21.60;52.60;;;;;;5013674;28;20522;-75